This is the latest recevied weather packets stored in our database for station/object IZ5MMH-3. If no packets are shown the sender has not sent any weather packets the latest 10 day(s).
| Time | Temp. | Humidity | Pressure | Rain* | Wind** | Luminosity | Snow |
|---|---|---|---|---|---|---|---|
| 1788542030 | 30° C | 62% | 1017.9 hPa | - | - | - | - |
| 1788541430 | 32.22° C | 55% | 1017.9 hPa | - | - | - | - |
| 1788540830 | 32.78° C | 55% | 1018 hPa | - | - | - | - |
| 1788540230 | 33.33° C | 56% | 1018.1 hPa | - | - | - | - |
| 1788539630 | 33.33° C | 54% | 1018.1 hPa | - | - | - | - |
| 1788539030 | 33.33° C | 56% | 1018.1 hPa | - | - | - | - |
| 1788538430 | 33.89° C | 54% | 1018.2 hPa | - | - | - | - |
| 1788537830 | 33.89° C | 52% | 1018.3 hPa | - | - | - | - |
| 1788537230 | 34.44° C | 48% | 1018.1 hPa | - | - | - | - |
| 1788536630 | 35° C | 46% | 1018.1 hPa | - | - | - | - |
| 1788536030 | 33.33° C | 46% | 1018.2 hPa | - | - | - | - |
| 1788535430 | 33.33° C | 49% | 1018.4 hPa | - | - | - | - |
| 1788534830 | 33.33° C | 50% | 1018.2 hPa | - | - | - | - |
| 1788534230 | 33.33° C | 48% | 1018.3 hPa | - | - | - | - |
| 1788533630 | 32.78° C | 48% | 1018.3 hPa | - | - | - | - |
| 1788533030 | 32.78° C | 47% | 1018.3 hPa | - | - | - | - |
| 1788532430 | 32.78° C | 47% | 1018.4 hPa | - | - | - | - |
| 1788531830 | 32.78° C | 48% | 1018.3 hPa | - | - | - | - |
| 1788531230 | 32.78° C | 49% | 1018.4 hPa | - | - | - | - |
| 1788530644 | 33.33° C | 48% | 1018.4 hPa | - | - | - | - |
| 1788530030 | 33.89° C | 50% | 1018.3 hPa | - | - | - | - |
| 1788529430 | 33.89° C | 48% | 1018.5 hPa | - | - | - | - |
| 1788528830 | 33.89° C | 50% | 1018.4 hPa | - | - | - | - |
| 1788528230 | 33.33° C | 52% | 1018.5 hPa | - | - | - | - |
| 1788527630 | 32.78° C | 55% | 1018.5 hPa | - | - | - | - |
* Rain since midnight (hover to see other rain measurements)
** Current wind speed in m/s (hover to see current wind gust speed)